Time;durP1;ratioP1;P1;durP2;ratioP2;P2;SDS_P1;SDS_P2;PMS_P1;PMS_P2;Temp;Humidity;BMP_temperature;BMP_pressure;BME280_temperature;BME280_humidity;BME280_pressure;Samples;Min_cycle;Max_cycle;Signal;HPM_P1;HPM_P2
2022/09/12 00:00:10;;;;;;;4.32;2.70;;;15.50;99.90;;;;;;5079515;28;20218;-68
2022/09/12 00:02:36;;;;;;;3.97;2.80;;;15.60;99.90;;;;;;5055643;28;20211;-68
2022/09/12 00:05:03;;;;;;;4.32;2.95;;;15.50;99.90;;;;;;5075262;28;20206;-68
2022/09/12 00:07:28;;;;;;;4.55;3.28;;;15.50;99.90;;;;;;5080889;28;20683;-67
2022/09/12 00:09:54;;;;;;;5.00;3.15;;;15.50;99.90;;;;;;5079189;28;20298;-68
2022/09/12 00:12:19;;;;;;;5.00;3.30;;;15.40;99.90;;;;;;5075584;28;20678;-67
2022/09/12 00:14:45;;;;;;;4.60;2.97;;;15.40;99.90;;;;;;5078474;28;20214;-67
2022/09/12 00:17:11;;;;;;;3.70;2.92;;;15.40;99.90;;;;;;5079955;28;20225;-66
2022/09/12 00:19:36;;;;;;;5.85;3.33;;;15.30;99.90;;;;;;5073145;28;20238;-67
2022/09/12 00:22:02;;;;;;;4.78;2.70;;;15.40;99.90;;;;;;5081375;28;20625;-67
2022/09/12 00:24:28;;;;;;;7.18;2.80;;;15.30;99.90;;;;;;5083961;28;20206;-67
2022/09/12 00:26:53;;;;;;;3.72;2.80;;;15.30;99.90;;;;;;5079902;28;20728;-67
2022/09/12 00:29:22;;;;;;;4.03;2.65;;;15.30;99.90;;;;;;5080159;28;20174;-67
2022/09/12 00:31:48;;;;;;;4.82;2.83;;;15.20;99.90;;;;;;5078060;28;20217;-68
2022/09/12 00:34:13;;;;;;;4.00;2.78;;;15.20;99.90;;;;;;5079087;28;20203;-69
2022/09/12 00:36:39;;;;;;;4.38;2.60;;;15.20;99.90;;;;;;5059017;28;20202;-68
2022/09/12 00:39:06;;;;;;;2.78;2.40;;;15.10;99.90;;;;;;5072839;28;20218;-68
2022/09/12 00:41:38;;;;;;;4.90;2.70;;;15.10;99.90;;;;;;5082895;28;20214;-68
2022/09/12 00:44:23;;;;;;;3.30;2.92;;;15.20;99.90;;;;;;5077668;28;20175;-68
2022/09/12 00:46:50;;;;;;;4.28;2.88;;;15.10;99.90;;;;;;5069305;28;20221;-68
2022/09/12 00:49:39;;;;;;;5.20;3.05;;;15.10;99.90;;;;;;5080839;28;20231;-68
2022/09/12 00:52:09;;;;;;;3.25;2.80;;;15.10;99.90;;;;;;5077525;28;20207;-68
2022/09/12 00:54:42;;;;;;;4.03;2.53;;;15.10;99.90;;;;;;5077324;28;20206;-68
2022/09/12 00:57:12;;;;;;;4.30;2.92;;;15.10;99.90;;;;;;5071193;28;20218;-68
2022/09/12 00:59:40;;;;;;;4.38;3.03;;;15.00;99.90;;;;;;5081335;28;20205;-68
2022/09/12 01:02:06;;;;;;;3.58;2.65;;;15.10;99.90;;;;;;5079490;28;20178;-68
2022/09/12 01:04:35;;;;;;;2.92;2.53;;;15.00;99.90;;;;;;5082201;28;20205;-68
2022/09/12 01:07:04;;;;;;;4.90;2.70;;;15.00;99.90;;;;;;5074271;28;20241;-69
2022/09/12 01:09:29;;;;;;;3.65;3.17;;;15.00;99.90;;;;;;5082638;28;20845;-68
2022/09/12 01:11:55;;;;;;;5.82;3.20;;;15.00;99.90;;;;;;5071715;28;20229;-67
2022/09/12 01:14:21;;;;;;;3.42;3.08;;;15.00;99.90;;;;;;5075306;28;20656;-69
2022/09/12 01:16:48;;;;;;;4.05;2.92;;;15.00;99.90;;;;;;5078083;28;20226;-67
2022/09/12 01:19:19;;;;;;;3.97;2.97;;;15.00;99.90;;;;;;5070960;28;20291;-68
2022/09/12 01:22:17;;;;;;;3.15;2.83;;;14.90;99.90;;;;;;5071154;28;20206;-68
2022/09/12 01:25:06;;;;;;;4.60;3.38;;;14.90;99.90;;;;;;5075778;28;20217;-67
2022/09/12 01:28:02;;;;;;;3.50;3.00;;;14.90;99.90;;;;;;5075942;28;20685;-68
2022/09/12 01:30:31;;;;;;;4.43;3.47;;;14.80;99.90;;;;;;5079346;28;20215;-67
2022/09/12 01:33:22;;;;;;;3.80;2.90;;;14.80;99.90;;;;;;5079344;28;20203;-68
2022/09/12 01:35:59;;;;;;;3.45;2.97;;;14.80;99.90;;;;;;5081397;28;20218;-68
2022/09/12 01:38:51;;;;;;;3.88;3.47;;;14.80;99.90;;;;;;5072709;28;20255;-68
2022/09/12 01:41:41;;;;;;;5.32;3.13;;;14.70;99.90;;;;;;5075438;28;20589;-68
2022/09/12 01:44:33;;;;;;;5.32;3.30;;;14.70;99.90;;;;;;5041505;28;20219;-68
2022/09/12 01:47:08;;;;;;;4.88;3.05;;;14.70;99.90;;;;;;5069766;28;20745;-68
2022/09/12 01:49:57;;;;;;;3.85;3.10;;;14.70;99.90;;;;;;5079663;28;20342;-68
2022/09/12 01:52:33;;;;;;;3.55;3.22;;;14.70;99.90;;;;;;5081623;28;20202;-67
2022/09/12 01:55:23;;;;;;;4.95;3.35;;;14.60;99.90;;;;;;5071134;28;20266;-68
2022/09/12 01:58:02;;;;;;;4.32;3.47;;;14.60;99.90;;;;;;5072156;28;20210;-68
2022/09/12 02:00:29;;;;;;;4.47;3.25;;;14.60;99.90;;;;;;5077285;28;20696;-68
2022/09/12 02:03:01;;;;;;;3.50;2.95;;;14.70;99.90;;;;;;5078003;28;20216;-68
2022/09/12 02:05:32;;;;;;;4.82;3.03;;;14.60;99.90;;;;;;5078779;28;20207;-67
2022/09/12 02:08:06;;;;;;;3.78;3.38;;;14.60;99.90;;;;;;5075316;28;20179;-68
2022/09/12 02:10:55;;;;;;;4.35;3.17;;;14.50;99.90;;;;;;5070559;28;20198;-67
2022/09/12 02:13:36;;;;;;;4.57;3.65;;;14.50;99.90;;;;;;5072352;28;20199;-67
2022/09/12 02:16:14;;;;;;;4.57;3.20;;;14.50;99.90;;;;;;5077885;28;20217;-67
2022/09/12 02:18:48;;;;;;;3.83;3.25;;;14.50;99.90;;;;;;5078864;28;20563;-67
2022/09/12 02:21:17;;;;;;;8.77;3.45;;;14.50;99.90;;;;;;5068210;28;20203;-67
2022/09/12 02:23:48;;;;;;;4.95;3.13;;;14.50;99.90;;;;;;5078440;28;20178;-67
2022/09/12 02:26:20;;;;;;;4.82;3.65;;;14.50;99.90;;;;;;5068529;28;20195;-67
2022/09/12 02:28:46;;;;;;;3.75;3.40;;;14.50;99.90;;;;;;5077705;28;20202;-67
2022/09/12 02:31:42;;;;;;;4.60;3.80;;;14.50;99.90;;;;;;5073555;28;20634;-68
2022/09/12 02:34:49;;;;;;;3.72;3.40;;;14.40;99.90;;;;;;5077991;28;20226;-67
2022/09/12 02:37:30;;;;;;;6.63;3.60;;;14.40;99.90;;;;;;5074207;28;20212;-67
2022/09/12 02:39:56;;;;;;;4.20;3.85;;;14.40;99.90;;;;;;5075994;28;20679;-67
2022/09/12 02:42:23;;;;;;;4.43;3.78;;;14.30;99.90;;;;;;5078662;28;20206;-67
2022/09/12 02:44:49;;;;;;;4.20;3.53;;;14.30;99.90;;;;;;5077609;28;20202;-67
2022/09/12 02:47:31;;;;;;;3.95;3.55;;;14.30;99.90;;;;;;5072973;28;20264;-67
2022/09/12 02:49:58;;;;;;;4.13;3.80;;;14.30;99.90;;;;;;5074389;28;20297;-67
2022/09/12 02:52:26;;;;;;;5.00;4.43;;;14.20;99.90;;;;;;5062517;28;20209;-67
2022/09/12 02:54:52;;;;;;;4.90;4.05;;;14.20;99.90;;;;;;5077994;28;20210;-68
2022/09/12 02:57:19;;;;;;;4.53;3.60;;;14.20;99.90;;;;;;5079059;28;20218;-68
2022/09/12 02:59:46;;;;;;;3.67;3.38;;;14.20;99.90;;;;;;5079178;28;20186;-67
2022/09/12 03:02:11;;;;;;;4.72;3.75;;;14.30;99.90;;;;;;5071114;28;20175;-67
2022/09/12 03:04:37;;;;;;;4.50;3.95;;;14.20;99.90;;;;;;5074962;28;20220;-67
2022/09/12 03:07:25;;;;;;;4.75;3.90;;;14.30;99.90;;;;;;5057318;28;20245;-67
2022/09/12 03:10:05;;;;;;;4.25;3.58;;;14.20;99.90;;;;;;5075953;28;20201;-67
2022/09/12 03:12:59;;;;;;;4.47;3.60;;;14.20;99.90;;;;;;5078324;28;20256;-67
2022/09/12 03:15:30;;;;;;;4.13;3.45;;;14.20;99.90;;;;;;5075615;28;20230;-70
2022/09/12 03:18:21;;;;;;;3.55;3.25;;;14.20;99.90;;;;;;5078709;28;20268;-67
2022/09/12 03:20:52;;;;;;;4.30;3.85;;;14.20;99.90;;;;;;5056910;28;20218;-67
2022/09/12 03:23:45;;;;;;;4.47;3.88;;;14.20;99.90;;;;;;5074901;28;20179;-67
2022/09/12 03:26:25;;;;;;;5.35;4.00;;;14.10;99.90;;;;;;5080346;28;20238;-67
2022/09/12 03:28:53;;;;;;;9.27;4.00;;;14.10;99.90;;;;;;5071203;28;20202;-68
2022/09/12 03:31:19;;;;;;;5.03;4.40;;;14.00;99.90;;;;;;5068086;28;20199;-67
2022/09/12 03:33:45;;;;;;;4.30;3.90;;;14.00;99.90;;;;;;5081832;28;20210;-67
2022/09/12 03:36:23;;;;;;;4.30;3.90;;;14.00;99.90;;;;;;5080662;28;20228;-67
2022/09/12 03:38:49;;;;;;;5.53;4.07;;;14.00;99.90;;;;;;5070400;28;20221;-67
2022/09/12 03:41:14;;;;;;;4.40;4.00;;;14.00;99.90;;;;;;5079181;28;20179;-67
2022/09/12 03:43:40;;;;;;;4.28;3.88;;;14.00;99.90;;;;;;5081658;28;20244;-64
2022/09/12 03:46:06;;;;;;;4.32;3.92;;;14.00;99.90;;;;;;5074861;28;20222;-67
2022/09/12 03:48:31;;;;;;;7.43;4.75;;;14.00;99.90;;;;;;5078625;28;20198;-68
2022/09/12 03:51:06;;;;;;;4.80;4.15;;;13.90;99.90;;;;;;5077734;28;20225;-67
2022/09/12 03:53:32;;;;;;;4.70;4.30;;;13.90;99.90;;;;;;5080833;28;20582;-68
2022/09/12 03:55:58;;;;;;;5.82;4.20;;;13.90;99.90;;;;;;5079647;28;20225;-67
2022/09/12 03:58:28;;;;;;;4.88;4.30;;;13.90;99.90;;;;;;5079019;28;20225;-68
2022/09/12 04:00:54;;;;;;;4.75;4.03;;;13.90;99.90;;;;;;5078198;28;20206;-68
2022/09/12 04:03:19;;;;;;;5.57;4.10;;;13.90;99.90;;;;;;5071226;28;20207;-67
2022/09/12 04:05:46;;;;;;;4.30;3.90;;;14.00;99.90;;;;;;5080401;28;20222;-67
2022/09/12 04:08:12;;;;;;;6.10;4.80;;;13.90;99.90;;;;;;5081927;28;20167;-67
2022/09/12 04:10:37;;;;;;;8.23;4.75;;;13.90;99.90;;;;;;5075296;28;20211;-67
2022/09/12 04:13:03;;;;;;;5.43;3.97;;;13.90;99.90;;;;;;5073463;28;20214;-67
2022/09/12 04:15:29;;;;;;;4.65;4.20;;;13.80;99.90;;;;;;5079839;28;20210;-68
2022/09/12 04:17:54;;;;;;;6.70;4.75;;;13.80;99.90;;;;;;5078706;28;20238;-68
2022/09/12 04:20:20;;;;;;;6.72;4.70;;;13.80;99.90;;;;;;5077308;28;20221;-67
2022/09/12 04:22:45;;;;;;;5.07;4.57;;;13.90;99.90;;;;;;5082740;28;20203;-67
2022/09/12 04:25:12;;;;;;;6.53;4.78;;;13.80;99.90;;;;;;5080307;28;20241;-68
2022/09/12 04:27:37;;;;;;;6.53;4.75;;;13.80;99.90;;;;;;5073496;28;20575;-67
2022/09/12 04:30:03;;;;;;;8.45;4.45;;;13.80;99.90;;;;;;5072327;28;20219;-67
2022/09/12 04:32:30;;;;;;;5.18;4.68;;;13.80;99.90;;;;;;5064447;28;20231;-68
2022/09/12 04:34:56;;;;;;;6.47;5.05;;;13.70;99.90;;;;;;5080992;28;20181;-67
2022/09/12 04:37:23;;;;;;;7.13;5.53;;;13.80;99.90;;;;;;5073418;28;20219;-68
2022/09/12 04:39:49;;;;;;;5.60;4.93;;;13.80;99.90;;;;;;5082299;28;20210;-67
2022/09/12 04:42:15;;;;;;;7.90;5.50;;;13.80;99.90;;;;;;5077669;28;20633;-68
2022/09/12 04:44:40;;;;;;;6.00;4.53;;;13.80;99.90;;;;;;5075874;28;20182;-67
2022/09/12 04:47:06;;;;;;;6.13;5.53;;;13.80;99.90;;;;;;5090612;22;20721;-68
2022/09/12 04:49:32;;;;;;;5.25;4.70;;;13.70;99.90;;;;;;5102972;28;20212;-68
2022/09/12 04:51:57;;;;;;;6.90;5.22;;;13.80;99.90;;;;;;5082240;28;20289;-67
2022/09/12 04:54:23;;;;;;;8.85;4.90;;;13.80;99.90;;;;;;5100692;28;20580;-68
2022/09/12 04:56:50;;;;;;;7.00;5.60;;;13.80;99.90;;;;;;5102180;28;20309;-68
2022/09/12 04:59:18;;;;;;;5.55;4.93;;;13.90;99.90;;;;;;5099856;28;20607;-68
2022/09/12 05:01:44;;;;;;;7.75;5.60;;;13.90;99.90;;;;;;5082046;28;20206;-68
2022/09/12 05:04:11;;;;;;;7.43;5.32;;;13.90;99.90;;;;;;5098237;28;20209;-68
2022/09/12 05:06:39;;;;;;;6.18;5.57;;;13.90;99.90;;;;;;5078756;28;20209;-68
2022/09/12 05:09:06;;;;;;;7.95;5.57;;;14.00;99.90;;;;;;5100665;28;20279;-68
2022/09/12 05:11:35;;;;;;;6.55;5.63;;;14.00;99.90;;;;;;5099836;28;20185;-68
2022/09/12 05:14:00;;;;;;;5.60;5.00;;;14.10;99.90;;;;;;5100661;28;20174;-67
2022/09/12 05:16:27;;;;;;;6.47;5.85;;;14.10;99.90;;;;;;5102829;28;20282;-68
2022/09/12 05:18:53;;;;;;;7.43;6.15;;;14.20;99.90;;;;;;5096170;28;20206;-68
2022/09/12 05:21:21;;;;;;;7.57;5.60;;;14.30;99.90;;;;;;5098205;28;20198;-68
2022/09/12 05:23:50;;;;;;;6.35;5.18;;;14.40;99.90;;;;;;5100771;28;20206;-67
2022/09/12 05:26:16;;;;;;;8.43;6.05;;;14.50;99.90;;;;;;5102353;28;20185;-67
2022/09/12 05:28:42;;;;;;;10.07;5.68;;;14.80;99.90;;;;;;5093268;28;20688;-67
2022/09/12 05:31:12;;;;;;;10.40;6.40;;;15.40;99.90;;;;;;5098858;28;20210;-68
2022/09/12 05:33:41;;;;;;;6.80;4.57;;;17.70;99.90;;;;;;5101727;28;20225;-68
2022/09/12 05:36:11;;;;;;;7.20;4.72;;;19.10;99.90;;;;;;5098566;28;20285;-69
2022/09/12 05:38:36;;;;;;;7.35;4.97;;;19.70;99.90;;;;;;5098926;28;20198;-69
2022/09/12 05:41:05;;;;;;;8.27;4.65;;;19.80;99.90;;;;;;5098944;28;20206;-68
2022/09/12 05:43:31;;;;;;;7.72;5.38;;;20.30;99.90;;;;;;5101635;28;20648;-69
2022/09/12 05:46:07;;;;;;;7.15;4.15;;;20.10;99.90;;;;;;5098134;28;20615;-71
2022/09/12 05:48:36;;;;;;;4.97;4.25;;;21.50;99.90;;;;;;5080436;28;20231;-69
2022/09/12 05:51:05;;;;;;;5.65;3.97;;;22.50;99.90;;;;;;5095482;28;20335;-69
2022/09/12 05:53:31;;;;;;;6.38;4.43;;;23.20;99.90;;;;;;5081919;28;20270;-69
2022/09/12 05:56:15;;;;;;;5.15;4.60;;;23.80;99.90;;;;;;5099904;28;20269;-69
2022/09/12 05:58:43;;;;;;;7.32;4.97;;;24.60;99.90;;;;;;5094519;28;20578;-68
2022/09/12 06:01:11;;;;;;;11.45;5.38;;;24.60;99.90;;;;;;5100440;28;20609;-68
2022/09/12 06:03:43;;;;;;;6.18;4.60;;;25.10;99.90;;;;;;5099027;28;20232;-68
2022/09/12 06:06:12;;;;;;;8.05;5.03;;;25.20;99.90;;;;;;5095691;28;20216;-69
2022/09/12 06:08:39;;;;;;;5.55;4.47;;;25.30;99.90;;;;;;5082620;28;20174;-69
2022/09/12 06:11:05;;;;;;;7.03;4.50;;;25.50;99.90;;;;;;5098425;28;20655;-68
2022/09/12 06:13:33;;;;;;;5.93;4.53;;;26.00;99.90;;;;;;5101105;28;20224;-68
2022/09/12 06:16:07;;;;;;;7.25;4.38;;;26.20;99.90;;;;;;5098353;28;20210;-68
2022/09/12 06:18:34;;;;;;;7.85;4.28;;;26.50;99.90;;;;;;5080191;28;20200;-68
2022/09/12 06:21:10;;;;;;;4.97;4.45;;;27.30;99.90;;;;;;5098233;28;20618;-68
2022/09/12 06:23:37;;;;;;;5.38;4.70;;;27.20;99.90;;;;;;5099712;28;20168;-68
2022/09/12 06:26:04;;;;;;;7.30;4.80;;;27.20;99.90;;;;;;5099349;28;20204;-68
2022/09/12 06:28:31;;;;;;;6.68;4.80;;;27.30;99.90;;;;;;5092032;28;20684;-69
2022/09/12 06:31:11;;;;;;;5.53;4.85;;;27.20;99.90;;;;;;5099522;28;20233;-69
2022/09/12 06:33:40;;;;;;;7.22;5.30;;;27.00;99.90;;;;;;5097083;28;20269;-69
2022/09/12 06:36:19;;;;;;;8.43;5.47;;;27.10;99.90;;;;;;5097907;28;20209;-68
2022/09/12 06:38:46;;;;;;;5.93;5.20;;;27.10;99.90;;;;;;5095154;28;20784;-68
2022/09/12 06:41:12;;;;;;;6.63;5.45;;;27.00;99.90;;;;;;5099575;28;20662;-69
2022/09/12 06:43:39;;;;;;;9.50;6.32;;;27.40;99.90;;;;;;5081999;28;20201;-69
2022/09/12 06:46:05;;;;;;;9.38;6.30;;;27.30;99.90;;;;;;5097896;28;20205;-69
2022/09/12 06:48:31;;;;;;;9.45;6.10;;;27.20;99.90;;;;;;5100983;28;20217;-69
2022/09/12 06:51:13;;;;;;;6.60;5.20;;;27.60;99.90;;;;;;5098156;28;20213;-68
2022/09/12 06:53:39;;;;;;;6.35;5.55;;;27.50;99.90;;;;;;5099000;28;20180;-69
2022/09/12 06:56:14;;;;;;;9.43;5.90;;;28.10;99.90;;;;;;5098372;28;20170;-69
2022/09/12 06:58:41;;;;;;;12.13;5.78;;;27.80;99.90;;;;;;5094145;28;20206;-69
2022/09/12 07:01:21;;;;;;;5.82;4.80;;;28.30;99.90;;;;;;5102370;28;20259;-68
2022/09/12 07:03:52;;;;;;;6.78;5.72;;;28.50;99.90;;;;;;5098170;28;20590;-69
2022/09/12 07:06:19;;;;;;;10.35;5.15;;;28.90;99.90;;;;;;5101457;28;20288;-68
2022/09/12 07:08:46;;;;;;;6.38;5.10;;;28.80;99.90;;;;;;5103716;28;20615;-69
2022/09/12 07:11:17;;;;;;;8.98;4.88;;;28.60;99.90;;;;;;5101850;28;20670;-69
2022/09/12 07:13:44;;;;;;;7.95;5.03;;;28.80;99.90;;;;;;5099060;28;20240;-69
2022/09/12 07:16:11;;;;;;;6.05;5.18;;;28.30;99.90;;;;;;5102850;28;20216;-69
2022/09/12 07:18:39;;;;;;;8.20;4.95;;;28.80;99.90;;;;;;5103525;28;20786;-69
2022/09/12 07:21:10;;;;;;;4.93;4.35;;;29.20;99.90;;;;;;5101460;28;20205;-68
2022/09/12 07:23:36;;;;;;;5.97;4.43;;;29.60;99.90;;;;;;5102891;28;20743;-69
2022/09/12 07:26:02;;;;;;;5.22;4.53;;;29.60;99.90;;;;;;5084223;28;20256;-69
2022/09/12 07:28:30;;;;;;;6.15;4.30;;;29.40;99.90;;;;;;5094944;28;20210;-69
2022/09/12 07:30:56;;;;;;;6.38;4.70;;;29.90;99.90;;;;;;5102816;28;20726;-69
2022/09/12 07:33:25;;;;;;;5.68;4.63;;;29.60;99.90;;;;;;5100895;28;20209;-68
2022/09/12 07:35:53;;;;;;;4.95;4.45;;;29.20;99.90;;;;;;5104764;28;20228;-69
2022/09/12 07:38:19;;;;;;;5.38;4.60;;;29.30;99.90;;;;;;5099158;28;20586;-68
2022/09/12 07:40:45;;;;;;;5.45;4.28;;;29.40;99.90;;;;;;5103832;28;20208;-68
2022/09/12 07:43:11;;;;;;;6.22;4.53;;;29.70;99.90;;;;;;5103115;28;20197;-68
2022/09/12 07:45:36;;;;;;;4.93;4.15;;;30.20;99.90;;;;;;5101208;28;20198;-68
2022/09/12 07:48:02;;;;;;;6.15;4.57;;;30.10;99.90;;;;;;5083435;28;20232;-68
2022/09/12 07:50:28;;;;;;;6.70;4.22;;;29.60;99.90;;;;;;5104211;28;20635;-69
2022/09/12 07:52:54;;;;;;;5.88;3.70;;;29.40;99.90;;;;;;5101516;28;20170;-68
2022/09/12 07:55:21;;;;;;;4.13;3.20;;;29.40;99.90;;;;;;5101095;28;20194;-67
2022/09/12 07:57:50;;;;;;;5.68;3.30;;;29.70;99.90;;;;;;5100666;28;20229;-66
2022/09/12 08:00:17;;;;;;;3.72;2.90;;;29.50;99.90;;;;;;5084662;28;20205;-68
2022/09/12 08:02:42;;;;;;;3.55;2.70;;;29.30;99.90;;;;;;5101455;28;20185;-68
2022/09/12 08:05:08;;;;;;;2.80;2.50;;;29.90;99.90;;;;;;5101134;28;20192;-68
2022/09/12 08:07:34;;;;;;;2.50;2.20;;;29.60;99.90;;;;;;5104320;28;20587;-68
2022/09/12 08:10:00;;;;;;;2.92;1.70;;;30.00;99.90;;;;;;5099893;28;20201;-68
2022/09/12 08:12:31;;;;;;;2.03;1.60;;;30.40;99.90;;;;;;5100913;28;20201;-69
2022/09/12 08:14:57;;;;;;;2.38;2.15;;;30.40;99.90;;;;;;5101638;28;20198;-67
2022/09/12 08:17:22;;;;;;;3.38;2.85;;;30.00;99.90;;;;;;5104310;28;20236;-68
2022/09/12 08:19:48;;;;;;;1.83;1.73;;;30.20;99.90;;;;;;5100797;28;20205;-67
2022/09/12 08:22:14;;;;;;;2.10;1.73;;;30.20;99.80;;;;;;5100152;28;20727;-67
2022/09/12 08:24:39;;;;;;;2.75;1.85;;;29.70;99.30;;;;;;5102470;28;20202;-67
2022/09/12 08:27:05;;;;;;;1.92;1.73;;;29.90;99.90;;;;;;5081594;28;20198;-67
2022/09/12 08:29:31;;;;;;;1.40;1.15;;;29.70;99.90;;;;;;5095432;28;20171;-67
2022/09/12 08:31:57;;;;;;;2.17;1.98;;;29.30;99.90;;;;;;5101565;28;20201;-67
2022/09/12 08:34:23;;;;;;;2.45;1.50;;;29.30;99.90;;;;;;5103196;28;20220;-66
2022/09/12 08:36:49;;;;;;;4.90;4.13;;;29.00;99.90;;;;;;5081582;28;20220;-66
2022/09/12 08:39:15;;;;;;;3.40;1.60;;;28.70;99.90;;;;;;5100023;28;20205;-66
2022/09/12 08:41:46;;;;;;;2.70;1.40;;;29.10;99.90;;;;;;5102509;28;20170;-68
2022/09/12 08:44:34;;;;;;;2.20;1.25;;;28.80;99.90;;;;;;5102981;28;20903;-67
2022/09/12 08:47:05;;;;;;;1.83;1.35;;;28.50;99.90;;;;;;5098380;28;20228;-67
2022/09/12 08:49:40;;;;;;;3.28;2.03;;;28.90;99.90;;;;;;5103125;28;20213;-67
2022/09/12 08:52:13;;;;;;;3.15;1.98;;;28.80;99.90;;;;;;5098941;28;20202;-68
2022/09/12 08:54:39;;;;;;;1.70;0.90;;;28.30;99.90;;;;;;5099001;28;20216;-67
2022/09/12 08:57:07;;;;;;;3.25;1.30;;;28.00;99.90;;;;;;5099637;28;20222;-67
2022/09/12 08:59:47;;;;;;;2.58;1.40;;;27.80;99.90;;;;;;5095390;28;20173;-68
2022/09/12 09:02:37;;;;;;;2.38;1.63;;;27.40;99.90;;;;;;5081991;28;20269;-67
2022/09/12 09:05:27;;;;;;;1.70;0.90;;;27.70;99.90;;;;;;5099439;28;20213;-68
2022/09/12 09:08:56;;;;;;;1.40;1.30;;;27.60;99.90;;;;;;5100235;28;20626;-67
2022/09/12 09:11:58;;;;;;;1.95;1.30;;;27.40;99.90;;;;;;5005743;28;20656;-67
2022/09/12 09:14:50;;;;;;;2.05;1.45;;;27.40;99.90;;;;;;5025152;28;20256;-67
2022/09/12 09:17:20;;;;;;;2.15;1.83;;;26.90;99.90;;;;;;5101451;28;20221;-68
2022/09/12 09:20:16;;;;;;;1.67;1.30;;;26.30;99.90;;;;;;5098760;28;20205;-68
2022/09/12 09:22:48;;;;;;;1.42;1.00;;;25.80;99.90;;;;;;5070638;28;20206;-67
2022/09/12 09:25:24;;;;;;;1.60;1.10;;;24.70;99.90;;;;;;5100840;28;20206;-67
2022/09/12 09:28:01;;;;;;;3.22;1.38;;;24.50;99.90;;;;;;5092039;28;20218;-67
2022/09/12 09:30:27;;;;;;;2.25;1.67;;;24.40;99.90;;;;;;5097462;28;20217;-68
2022/09/12 09:32:59;;;;;;;2.03;1.45;;;24.60;99.90;;;;;;5100457;28;20241;-67
2022/09/12 09:35:27;;;;;;;2.53;1.77;;;24.70;99.90;;;;;;5102917;28;20656;-68
2022/09/12 09:38:00;;;;;;;5.75;2.58;;;25.00;99.90;;;;;;5099020;28;20216;-67
2022/09/12 09:40:38;;;;;;;5.60;3.50;;;25.20;99.90;;;;;;5087269;28;20231;-68
2022/09/12 09:43:07;;;;;;;2.55;1.55;;;25.70;99.90;;;;;;5097957;28;20576;-68
2022/09/12 09:45:33;;;;;;;3.90;2.50;;;25.80;99.90;;;;;;5099099;28;20206;-68
2022/09/12 09:48:39;;;;;;;2.35;1.80;;;26.30;99.90;;;;;;5099868;28;20295;-67
2022/09/12 09:51:06;;;;;;;2.50;1.50;;;26.20;99.90;;;;;;5096853;28;20204;-68
2022/09/12 09:53:45;;;;;;;2.95;2.08;;;26.40;99.90;;;;;;5099106;28;20177;-68
2022/09/12 09:56:26;;;;;;;2.20;1.30;;;26.40;99.90;;;;;;5098057;28;20171;-67
2022/09/12 09:58:52;;;;;;;4.53;1.77;;;26.40;99.90;;;;;;5096912;28;20285;-68
2022/09/12 10:01:18;;;;;;;3.72;2.72;;;26.10;99.90;;;;;;5102470;28;20694;-68
2022/09/12 10:03:54;;;;;;;5.80;3.53;;;25.70;99.90;;;;;;5098861;28;20212;-68
2022/09/12 10:06:31;;;;;;;2.40;1.27;;;25.10;99.90;;;;;;5098198;28;20202;-68
2022/09/12 10:09:07;;;;;;;2.53;1.27;;;24.30;99.90;;;;;;5098710;28;20209;-68
2022/09/12 10:11:33;;;;;;;1.50;1.25;;;24.50;99.90;;;;;;5102314;28;20580;-69
2022/09/12 10:14:00;;;;;;;2.53;1.80;;;24.50;99.90;;;;;;5100328;28;20174;-68
2022/09/12 10:16:34;;;;;;;5.35;1.40;;;24.80;99.90;;;;;;5101897;28;20209;-68
2022/09/12 10:19:01;;;;;;;2.53;2.20;;;25.30;99.90;;;;;;5095721;28;20836;-68
2022/09/12 10:21:35;;;;;;;2.42;1.75;;;25.20;99.90;;;;;;5100048;28;20285;-69
2022/09/12 10:24:18;;;;;;;3.70;1.63;;;24.80;99.90;;;;;;5098683;28;20292;-68
2022/09/12 10:26:50;;;;;;;2.70;2.00;;;24.90;99.90;;;;;;5098987;28;20251;-68
2022/09/12 10:29:26;;;;;;;2.25;1.02;;;25.00;99.90;;;;;;5094550;28;20644;-68
2022/09/12 10:31:58;;;;;;;2.08;1.48;;;25.30;99.90;;;;;;5109447;28;20213;-68
2022/09/12 10:34:29;;;;;;;2.15;1.95;;;25.30;99.90;;;;;;5108252;28;20223;-68
2022/09/12 10:37:04;;;;;;;0.85;0.75;;;25.20;99.90;;;;;;5103837;28;20210;-68
2022/09/12 10:39:31;;;;;;;4.32;2.33;;;25.80;99.90;;;;;;5108258;28;20338;-68
2022/09/12 10:41:56;;;;;;;2.65;2.10;;;26.00;99.90;;;;;;5108044;28;20343;-69
2022/09/12 10:44:28;;;;;;;2.13;0.77;;;26.10;99.90;;;;;;5105375;28;20257;-68
2022/09/12 10:46:54;;;;;;;2.63;1.50;;;26.00;99.90;;;;;;5107254;28;20326;-68
2022/09/12 10:49:30;;;;;;;2.92;1.83;;;26.30;99.90;;;;;;5041776;22;20235;-72
2022/09/12 10:52:16;;;;;;;7.70;4.68;;;26.20;99.90;;;;;;5040167;28;20211;-70
2022/09/12 10:54:42;;;;;;;4.05;2.50;;;26.60;99.90;;;;;;5032931;28;20208;-70
2022/09/12 10:57:21;;;;;;;2.42;1.20;;;26.60;99.90;;;;;;5029722;28;20702;-71
2022/09/12 11:00:09;;;;;;;3.10;1.60;;;26.20;99.90;;;;;;5016388;28;20299;-72
2022/09/12 11:02:53;;;;;;;2.08;1.25;;;25.50;99.90;;;;;;5018172;28;20184;-71
2022/09/12 11:05:49;;;;;;;2.30;1.83;;;25.10;99.90;;;;;;5013220;28;20180;-71
2022/09/12 11:08:39;;;;;;;1.45;1.10;;;24.90;99.90;;;;;;5008330;28;20216;-72
2022/09/12 11:11:28;;;;;;;2.33;1.20;;;24.30;99.90;;;;;;5005082;28;20260;-70
2022/09/12 11:14:14;;;;;;;1.40;0.82;;;24.00;99.90;;;;;;5011442;28;20228;-71
2022/09/12 11:17:12;;;;;;;1.90;1.50;;;23.90;99.90;;;;;;4993867;28;20791;-73
2022/09/12 11:20:12;;;;;;;1.92;1.05;;;23.90;99.90;;;;;;5014835;28;20296;-71
2022/09/12 11:22:47;;;;;;;1.20;1.10;;;23.70;99.90;;;;;;5014249;28;20355;-72
2022/09/12 11:25:29;;;;;;;2.72;1.17;;;23.50;99.90;;;;;;5005604;28;20745;-71
2022/09/12 11:28:42;;;;;;;1.05;0.90;;;23.40;99.90;;;;;;5001514;28;20815;-72
2022/09/12 11:31:22;;;;;;;1.17;0.90;;;23.80;99.90;;;;;;5015810;28;20224;-72
2022/09/12 11:33:51;;;;;;;2.08;0.98;;;24.10;99.90;;;;;;5008942;28;20260;-72
2022/09/12 11:36:29;;;;;;;1.45;1.05;;;24.40;99.90;;;;;;5004907;28;20225;-74
2022/09/12 11:39:22;;;;;;;1.33;1.10;;;24.60;99.90;;;;;;5021529;28;20219;-72
2022/09/12 11:41:59;;;;;;;1.20;1.00;;;24.30;99.90;;;;;;5014312;28;20215;-73
2022/09/12 11:44:36;;;;;;;1.17;1.08;;;24.40;99.90;;;;;;5012939;28;20173;-72
2022/09/12 11:47:14;;;;;;;1.88;0.90;;;24.30;99.90;;;;;;4998099;28;20200;-73
2022/09/12 11:49:46;;;;;;;2.92;2.53;;;24.40;99.90;;;;;;5012900;28;20252;-71
2022/09/12 11:52:27;;;;;;;2.22;1.80;;;24.40;99.90;;;;;;5012778;28;20209;-72
2022/09/12 11:54:59;;;;;;;2.30;1.23;;;24.20;99.90;;;;;;5006106;28;20721;-75
2022/09/12 11:57:44;;;;;;;1.92;1.75;;;24.50;99.90;;;;;;5012369;28;20788;-72
2022/09/12 12:00:34;;;;;;;2.85;1.20;;;24.50;99.90;;;;;;5008358;28;20798;-71
2022/09/12 12:03:26;;;;;;;1.42;1.30;;;24.70;99.90;;;;;;5009199;28;20611;-70
2022/09/12 12:05:57;;;;;;;2.08;1.35;;;24.70;99.90;;;;;;5012812;28;20220;-74
2022/09/12 12:08:25;;;;;;;2.88;1.10;;;24.20;99.90;;;;;;5010029;28;20220;-71
2022/09/12 12:10:55;;;;;;;1.90;1.10;;;24.30;99.90;;;;;;5015546;28;20212;-71
2022/09/12 12:13:34;;;;;;;2.22;1.77;;;24.50;99.90;;;;;;5000546;28;20208;-71
2022/09/12 12:16:18;;;;;;;1.25;1.10;;;24.70;99.90;;;;;;4996982;28;20247;-71
2022/09/12 12:18:44;;;;;;;1.40;0.98;;;24.80;99.90;;;;;;5012699;28;20224;-70
2022/09/12 12:21:30;;;;;;;1.10;1.00;;;24.40;99.90;;;;;;5012152;28;20205;-70
2022/09/12 12:24:08;;;;;;;2.05;1.10;;;24.60;99.90;;;;;;5013667;28;20256;-70
2022/09/12 12:26:39;;;;;;;1.00;0.90;;;24.70;99.90;;;;;;5012428;28;20181;-70
2022/09/12 12:29:34;;;;;;;1.50;0.93;;;24.80;99.90;;;;;;5014141;28;20296;-71
2022/09/12 12:32:00;;;;;;;0.80;0.80;;;24.70;99.90;;;;;;5011982;28;20205;-71
2022/09/12 12:34:40;;;;;;;1.27;0.93;;;24.20;99.90;;;;;;5009635;28;20232;-71
2022/09/12 12:37:18;;;;;;;2.88;1.45;;;24.20;99.90;;;;;;5015070;28;20728;-72
2022/09/12 12:39:54;;;;;;;0.75;0.73;;;24.30;99.90;;;;;;5020784;28;20205;-69
2022/09/12 12:42:34;;;;;;;1.60;0.80;;;24.40;99.90;;;;;;5012046;28;20291;-72
2022/09/12 12:45:02;;;;;;;1.67;0.65;;;24.20;99.90;;;;;;5008962;28;20209;-70
2022/09/12 12:47:43;;;;;;;1.77;1.17;;;24.10;99.90;;;;;;5006384;28;20201;-71
2022/09/12 12:50:25;;;;;;;2.08;0.93;;;24.30;99.90;;;;;;5005839;28;20189;-73
2022/09/12 12:53:01;;;;;;;2.63;1.05;;;24.30;99.90;;;;;;4994814;28;20301;-71
2022/09/12 12:55:35;;;;;;;1.58;0.80;;;24.10;99.90;;;;;;5012187;28;20264;-72
2022/09/12 12:58:02;;;;;;;1.63;0.70;;;24.20;99.90;;;;;;5011190;28;20306;-73
2022/09/12 13:00:30;;;;;;;0.70;0.65;;;24.10;99.90;;;;;;5009514;28;20205;-71
2022/09/12 13:03:08;;;;;;;0.82;0.80;;;24.20;99.90;;;;;;5009611;28;20208;-71
2022/09/12 13:05:44;;;;;;;1.15;1.05;;;24.00;99.90;;;;;;5010141;28;20298;-71
2022/09/12 13:08:28;;;;;;;1.48;0.82;;;23.80;99.90;;;;;;5011230;28;20671;-72
2022/09/12 13:10:59;;;;;;;0.88;0.80;;;23.90;99.90;;;;;;5011682;28;20737;-71
2022/09/12 13:13:27;;;;;;;2.00;0.80;;;24.10;99.90;;;;;;5006651;28;20205;-70